createdAt,value
2018-08-18T00:05:21.680Z,100960.51
2018-08-18T00:08:10.464Z,100958.81
2018-08-18T00:10:57.980Z,100968.52
2018-08-18T00:13:46.022Z,100967.02
2018-08-18T00:16:33.248Z,100974.07
2018-08-18T00:22:36.717Z,100954.33
2018-08-18T00:25:24.535Z,100946.23
2018-08-18T00:28:11.896Z,100962.26
2018-08-18T00:30:59.649Z,100963.98
2018-08-18T00:33:46.982Z,100957.59
2018-08-18T00:42:59.448Z,100977.56
2018-08-18T00:45:46.858Z,100984.37
2018-08-18T00:48:37.597Z,100986.78
2018-08-18T00:51:25.218Z,100985.99
2018-08-18T00:54:12.450Z,100994.56
2018-08-18T00:57:01.106Z,100993.00
2018-08-18T00:59:48.529Z,100999.60
2018-08-18T01:02:36.851Z,100996.91
2018-08-18T01:05:24.000Z,100995.64
2018-08-18T01:11:22.930Z,101003.30
2018-08-18T02:16:49.380Z,100970.11
2018-08-18T02:32:15.198Z,100960.95
2018-08-18T02:53:52.617Z,100962.52
2018-08-18T02:56:40.323Z,100968.86
2018-08-18T03:33:53.185Z,100982.65
2018-08-18T03:36:41.864Z,100979.84
2018-08-18T03:39:30.904Z,100983.65
2018-08-18T03:51:40.652Z,100986.25
2018-08-18T04:00:48.466Z,100986.61
2018-08-18T04:03:36.969Z,100999.05
2018-08-18T04:06:25.033Z,101002.61
2018-08-18T04:09:13.682Z,101002.58
2018-08-18T04:12:01.667Z,101006.68
2018-08-18T04:14:49.031Z,101004.56
2018-08-18T04:17:37.013Z,101010.73
2018-08-18T04:23:33.054Z,101019.56
2018-08-18T04:26:20.340Z,101019.42
2018-08-18T04:29:09.491Z,101023.51
2018-08-18T04:31:57.930Z,101022.32
2018-08-18T04:34:45.089Z,101025.42
2018-08-18T04:37:32.378Z,101028.06
2018-08-18T04:40:20.013Z,101028.18
2018-08-18T04:43:07.223Z,101032.30
2018-08-18T04:45:54.657Z,101035.39
2018-08-18T04:48:42.285Z,101030.25
2018-08-18T05:04:14.496Z,101045.89
2018-08-18T05:07:02.239Z,101043.82
2018-08-18T05:09:50.020Z,101043.44
2018-08-18T05:12:37.625Z,101048.72
2018-08-18T05:15:25.227Z,101047.23
2018-08-18T05:18:12.706Z,101053.58
2018-08-18T05:21:00.499Z,101054.39
2018-08-18T05:23:48.002Z,101052.62
2018-08-18T05:26:50.988Z,101057.55
2018-08-18T05:29:38.609Z,101065.13
2018-08-18T05:32:26.197Z,101056.23
2018-08-18T05:35:13.599Z,101066.30
2018-08-18T05:38:01.275Z,101058.39
2018-08-18T05:40:48.858Z,101068.03
2018-08-18T05:43:36.905Z,101070.31
2018-08-18T05:46:24.944Z,101074.64
2018-08-18T05:49:12.218Z,101068.69
2018-08-18T05:52:03.828Z,101078.25
2018-08-18T05:54:51.786Z,101079.62
2018-08-18T05:57:39.638Z,101080.03
2018-08-18T06:00:27.162Z,101079.28
2018-08-18T06:03:14.853Z,101089.98
2018-08-18T06:09:11.387Z,101082.31
2018-08-18T06:11:59.113Z,101076.60
2018-08-18T06:14:49.603Z,101089.00
2018-08-18T06:17:37.272Z,101088.84
2018-08-18T06:20:25.451Z,101092.41
2018-08-18T06:23:13.363Z,101095.90
2018-08-18T06:26:01.211Z,101096.65
2018-08-18T06:28:51.552Z,101100.70
2018-08-18T06:31:39.318Z,101102.26
2018-08-18T06:34:27.517Z,101104.31
2018-08-18T06:40:31.683Z,101119.16
2018-08-18T06:43:27.865Z,101109.75
2018-08-18T06:46:18.678Z,101110.84
2018-08-18T06:49:06.610Z,101111.53
2018-08-18T06:51:54.854Z,101107.95
2018-08-18T06:54:42.295Z,101118.13
2018-08-18T06:57:30.006Z,101118.98
2018-08-18T07:00:18.094Z,101118.60
2018-08-18T07:03:05.988Z,101119.92
2018-08-18T07:05:53.764Z,101124.84
2018-08-18T07:08:41.912Z,101126.55
2018-08-18T07:11:29.876Z,101129.76
2018-08-18T07:17:23.625Z,101133.50
2018-08-18T07:20:11.474Z,101137.68
2018-08-18T07:22:59.007Z,101139.47
2018-08-18T07:25:47.094Z,101149.06
2018-08-18T07:28:34.974Z,101147.44
2018-08-18T07:31:22.865Z,101137.55
2018-08-18T07:43:30.003Z,101147.70
2018-08-18T07:46:17.412Z,101145.81
2018-08-18T07:49:05.766Z,101150.96
2018-08-18T07:51:55.307Z,101150.73
2018-08-18T07:54:46.089Z,101153.98
2018-08-18T07:57:42.200Z,101154.39
2018-08-18T08:00:39.134Z,101145.81
2018-08-18T08:03:27.381Z,101157.84
2018-08-18T08:06:19.697Z,101148.53
2018-08-18T09:08:15.239Z,101189.44
2018-08-18T09:45:21.568Z,101169.41
2018-08-18T09:54:24.026Z,101164.62
2018-08-18T10:19:00.091Z,101170.11
2018-08-18T11:15:05.759Z,101148.89
2018-08-18T12:35:53.561Z,101104.55
2018-08-18T12:54:21.151Z,101094.17
2018-08-18T13:53:28.385Z,101043.56
2018-08-18T14:02:43.660Z,101029.84
2018-08-18T14:11:44.303Z,101026.11
2018-08-18T14:20:48.792Z,101019.75
2018-08-18T15:35:18.236Z,100968.25
2018-08-18T15:38:05.284Z,100968.29
2018-08-18T15:40:52.948Z,100964.89
2018-08-18T16:14:57.359Z,100947.25
2018-08-18T16:17:45.479Z,100944.72
2018-08-18T16:20:33.709Z,100949.73
2018-08-18T17:13:36.975Z,100927.39
2018-08-18T17:16:24.828Z,100928.55
2018-08-18T17:19:12.415Z,100934.20
2018-08-18T17:22:00.323Z,100935.08
2018-08-18T17:49:45.051Z,100954.33
2018-08-18T18:11:29.972Z,100978.27
2018-08-18T18:17:30.475Z,100982.93
2018-08-18T18:20:18.279Z,100991.87
2018-08-18T18:29:18.323Z,100996.52
2018-08-18T18:32:08.065Z,100998.66
2018-08-18T19:30:58.445Z,101036.92
2018-08-18T20:17:36.404Z,101062.61
2018-08-18T22:28:37.718Z,101108.86
2018-08-18T22:37:38.413Z,101105.20
2018-08-18T22:46:39.099Z,101100.59
2018-08-18T23:26:48.166Z,101105.72
